Terminal Aerodrome Forecast
Issued by NWS

Current Version | Previous Version | Text Only | Print | Product List | Glossary On
Versions: 1 2 3 4 5 6 7 8 9 10 11 12 13 14 15 16 17 18 19 20 21 22 23 24 25 26 27 28 29 30 31 32 33 34 35 36 37 38 39 40 41 42
000
FTUS45 KREV 210520
TAFRNO
TAF
KRNO 210520Z 2106/2206 VRB04KT P6SM FEW140 SCT250
     FM212100 15007KT P6SM FEW090
     FM220300 VRB04KT P6SM SCT120 BKN160=

USA.gov is the U.S. government's official web portal to all federal, state and local government web resources and services.